Time;durP1;ratioP1;P1;durP2;ratioP2;P2;SDS_P1;SDS_P2;PMS_P1;PMS_P2;Temp;Humidity;BMP_temperature;BMP_pressure;BME280_temperature;BME280_humidity;BME280_pressure;Samples;Min_cycle;Max_cycle;Signal;HPM_P1;HPM_P2
2022/03/23 00:01:12;;;;;;;1.50;1.40;;;;;;;23.70;11.54;101578.31;5116673;28;20501;-75
2022/03/23 00:03:38;;;;;;;1.50;1.40;;;;;;;23.69;11.49;101567.63;5115420;28;20031;-74
2022/03/23 00:06:06;;;;;;;1.67;1.50;;;;;;;23.69;11.70;101567.63;5115918;28;20030;-75
2022/03/23 00:08:32;;;;;;;1.63;1.52;;;;;;;23.56;11.65;101544.19;5116188;28;20522;-75
2022/03/23 00:10:57;;;;;;;1.85;1.67;;;;;;;23.69;11.42;101568.44;5116375;28;20024;-75
2022/03/23 00:13:23;;;;;;;1.50;1.40;;;;;;;23.69;11.44;101562.16;5116292;28;20019;-73
2022/03/23 00:15:48;;;;;;;1.88;1.70;;;;;;;23.70;11.32;101548.28;5115994;28;20103;-74
2022/03/23 00:18:14;;;;;;;1.50;1.40;;;;;;;23.68;11.46;101555.91;5104674;28;20040;-74
2022/03/23 00:20:40;;;;;;;1.40;1.30;;;;;;;23.68;11.65;101555.03;5095598;28;20020;-76
2022/03/23 00:23:05;;;;;;;1.50;1.40;;;;;;;23.66;11.49;101544.38;5095875;28;20099;-75
2022/03/23 00:25:31;;;;;;;1.63;1.52;;;;;;;23.64;11.55;101538.34;5095595;28;20028;-75
2022/03/23 00:27:56;;;;;;;2.03;1.65;;;;;;;23.65;11.66;101542.75;5095972;28;20043;-75
2022/03/23 00:30:22;;;;;;;1.80;1.70;;;;;;;23.62;11.77;101537.78;5095643;28;20023;-75
2022/03/23 00:32:47;;;;;;;1.63;1.52;;;;;;;23.66;11.62;101540.81;5077247;28;20028;-75
2022/03/23 00:35:13;;;;;;;2.22;1.60;;;;;;;23.65;11.51;101540.00;5095149;28;20020;-75
2022/03/23 00:37:39;;;;;;;1.50;1.40;;;;;;;23.65;11.61;101537.28;5096308;28;20047;-74
2022/03/23 00:40:05;;;;;;;1.33;1.23;;;;;;;23.63;11.50;101542.97;5095085;28;20461;-74
2022/03/23 00:42:30;;;;;;;1.42;1.33;;;;;;;23.61;11.65;101528.75;5095070;28;20020;-73
2022/03/23 00:44:56;;;;;;;1.30;1.20;;;;;;;23.65;11.66;101537.28;5095421;28;20028;-74
2022/03/23 00:47:21;;;;;;;1.65;1.55;;;;;;;23.63;11.72;101531.25;5095354;28;20400;-75
2022/03/23 00:49:46;;;;;;;1.48;1.38;;;;;;;23.61;11.64;101530.66;5094955;28;20031;-74
2022/03/23 00:52:12;;;;;;;1.40;1.30;;;;;;;23.61;11.64;101528.75;5094889;28;20081;-74
2022/03/23 00:54:37;;;;;;;1.23;1.13;;;;;;;23.61;11.42;101526.03;5095651;28;20056;-75
2022/03/23 00:57:06;;;;;;;1.38;1.25;;;;;;;23.57;11.62;101521.31;5095238;28;20051;-75
2022/03/23 00:59:32;;;;;;;1.40;1.30;;;;;;;23.61;11.60;101519.72;5094846;28;20077;-74
2022/03/23 01:01:58;;;;;;;1.40;1.30;;;;;;;23.60;11.63;101507.19;5095073;28;20028;-76
2022/03/23 01:04:24;;;;;;;1.45;1.30;;;;;;;23.60;11.38;101509.91;5094652;28;20059;-76
2022/03/23 01:06:49;;;;;;;1.33;1.23;;;;;;;23.59;11.57;101498.19;5094982;28;20048;-77
2022/03/23 01:09:15;;;;;;;1.42;1.33;;;;;;;23.60;11.51;101496.25;5094645;28;20020;-76
2022/03/23 01:11:40;;;;;;;1.40;1.30;;;;;;;23.60;11.62;101485.34;5094542;28;20024;-76
2022/03/23 01:14:06;;;;;;;1.27;1.17;;;;;;;23.54;11.63;101473.53;5095290;28;20031;-76
2022/03/23 01:16:32;;;;;;;1.27;1.17;;;;;;;23.56;11.60;101473.25;5094716;28;20027;-77
2022/03/23 01:18:57;;;;;;;1.33;1.23;;;;;;;23.58;11.30;101476.59;5111019;28;20110;-76
2022/03/23 01:21:23;;;;;;;1.55;1.45;;;;;;;23.56;11.60;101476.00;5114788;28;20028;-76
2022/03/23 01:23:48;;;;;;;1.30;1.20;;;;;;;23.57;11.44;101466.75;5114714;28;20035;-77
2022/03/23 01:26:14;;;;;;;2.10;1.65;;;;;;;23.57;11.49;101467.56;5114969;28;20028;-77
2022/03/23 01:28:39;;;;;;;1.45;1.35;;;;;;;23.42;11.53;101429.97;5114439;28;20502;-76
2022/03/23 01:31:05;;;;;;;1.60;1.50;;;;;;;23.56;11.45;101459.63;5096364;28;20461;-76
2022/03/23 01:33:31;;;;;;;1.40;1.30;;;;;;;23.52;11.64;101456.56;5114497;28;20024;-75
2022/03/23 01:35:57;;;;;;;1.75;1.40;;;;;;;23.55;11.53;101455.25;5114403;28;20023;-77
2022/03/23 01:38:22;;;;;;;1.50;1.40;;;;;;;23.55;11.69;101453.34;5114371;28;20023;-75
2022/03/23 01:40:48;;;;;;;1.40;1.30;;;;;;;23.51;11.63;101445.91;5114350;28;20024;-75
2022/03/23 01:43:13;;;;;;;1.85;1.60;;;;;;;23.54;11.30;101448.13;5114748;28;20042;-76
2022/03/23 01:45:39;;;;;;;1.52;1.42;;;;;;;23.54;11.50;101439.94;5114655;28;20031;-74
2022/03/23 01:48:04;;;;;;;1.40;1.30;;;;;;;23.53;11.52;101422.75;5114295;28;20540;-77
2022/03/23 01:50:29;;;;;;;1.38;1.25;;;;;;;23.54;11.60;101429.03;5114300;28;20019;-75
2022/03/23 01:52:55;;;;;;;1.45;1.35;;;;;;;23.52;11.47;101421.09;5114184;28;20023;-74
2022/03/23 01:55:20;;;;;;;1.75;1.42;;;;;;;23.52;11.40;101421.09;5114474;28;20072;-75
2022/03/23 01:57:47;;;;;;;1.88;1.50;;;;;;;23.49;11.45;101415.31;5114621;28;20484;-74
2022/03/23 02:00:16;;;;;;;1.60;1.50;;;;;;;23.53;11.48;101416.47;5114612;28;20020;-74
2022/03/23 02:02:43;;;;;;;1.45;1.35;;;;;;;23.50;11.51;101404.16;5114043;28;20102;-74
2022/03/23 02:05:09;;;;;;;1.33;1.23;;;;;;;23.50;11.70;101406.88;5114380;28;20467;-74
2022/03/23 02:07:34;;;;;;;1.50;1.40;;;;;;;23.52;11.28;101414.81;5114067;28;20110;-74
2022/03/23 02:10:00;;;;;;;1.48;1.38;;;;;;;23.49;11.54;101401.69;5114671;28;20031;-74
2022/03/23 02:12:30;;;;;;;1.60;1.50;;;;;;;23.48;11.50;101397.31;5095924;28;20026;-75
2022/03/23 02:15:00;;;;;;;1.75;1.40;;;;;;;23.49;11.37;101382.56;5114051;28;20051;-75
2022/03/23 02:17:25;;;;;;;1.50;1.40;;;;;;;23.50;11.39;101382.34;5093412;28;20027;-74
2022/03/23 02:19:51;;;;;;;1.40;1.30;;;;;;;23.48;11.35;101380.94;5093691;28;20032;-74
2022/03/23 02:22:16;;;;;;;1.25;1.15;;;;;;;23.50;11.31;101381.50;5075851;28;20044;-75
2022/03/23 02:24:42;;;;;;;1.40;1.30;;;;;;;23.50;11.40;101384.25;5094036;28;20032;-74
2022/03/23 02:27:07;;;;;;;1.35;1.25;;;;;;;23.50;11.18;101374.16;5058777;28;20382;-75
2022/03/23 02:29:33;;;;;;;1.50;1.40;;;;;;;23.50;11.19;101362.41;5059161;28;20027;-75
2022/03/23 02:31:59;;;;;;;1.50;1.40;;;;;;;23.49;11.13;101360.75;5093780;28;20016;-74
2022/03/23 02:34:27;;;;;;;1.33;1.23;;;;;;;23.49;11.35;101366.22;5093609;28;20104;-73
2022/03/23 02:36:54;;;;;;;1.67;1.58;;;;;;;23.47;11.25;101358.28;5093438;28;20466;-75
2022/03/23 02:39:19;;;;;;;1.45;1.35;;;;;;;23.46;11.51;101356.63;5093639;28;20024;-75
2022/03/23 02:41:46;;;;;;;1.75;1.50;;;;;;;23.47;11.44;101354.72;5093357;28;20120;-75
2022/03/23 02:44:15;;;;;;;1.77;1.60;;;;;;;23.45;11.47;101357.69;5093687;28;20032;-74
2022/03/23 02:46:41;;;;;;;1.50;1.25;;;;;;;23.42;11.28;101356.31;5093533;28;20028;-75
2022/03/23 02:49:07;;;;;;;1.33;1.23;;;;;;;23.44;11.18;101359.63;5075647;28;20032;-73
2022/03/23 02:51:32;;;;;;;1.40;1.30;;;;;;;23.46;11.32;101361.25;5093220;28;20028;-74
2022/03/23 03:02:47;;;;;;;1.48;1.38;;;;;;;23.48;11.13;101340.03;5093331;28;20077;-75
2022/03/23 03:05:12;;;;;;;1.48;1.38;;;;;;;23.44;11.34;101335.06;5093262;28;20032;-74
2022/03/23 03:10:23;;;;;;;1.35;1.25;;;;;;;23.44;11.18;101337.78;5093479;28;20575;-74
2022/03/23 03:12:48;;;;;;;1.50;1.40;;;;;;;23.43;11.30;101324.41;5093458;28;20028;-75
2022/03/23 03:15:14;;;;;;;1.55;1.45;;;;;;;23.42;11.36;101329.03;5093062;28;20389;-74
2022/03/23 03:17:40;;;;;;;1.85;1.67;;;;;;;23.43;11.28;101329.84;5096885;28;20050;-74
2022/03/23 03:20:06;;;;;;;1.50;1.40;;;;;;;23.44;11.48;101326.06;5113572;28;20031;-74
2022/03/23 03:22:38;;;;;;;1.60;1.50;;;;;;;23.41;11.39;101321.91;5113919;28;20027;-75
2022/03/23 03:25:05;;;;;;;1.63;1.52;;;;;;;23.37;11.29;101320.78;5113396;28;20538;-74
2022/03/23 03:27:31;;;;;;;1.50;1.40;;;;;;;23.40;11.15;101325.75;5114220;28;20369;-74
2022/03/23 03:29:56;;;;;;;1.42;1.33;;;;;;;23.42;11.13;101317.28;5113761;28;20023;-74
2022/03/23 03:32:21;;;;;;;1.65;1.52;;;;;;;23.41;11.03;101315.66;5113450;28;20028;-74
2022/03/23 03:34:47;;;;;;;1.60;1.50;;;;;;;23.36;11.23;101308.19;5113265;28;20020;-74
2022/03/23 03:37:13;;;;;;;1.30;1.20;;;;;;;23.40;11.26;101320.28;5113598;28;20031;-77
2022/03/23 03:39:38;;;;;;;1.65;1.55;;;;;;;23.41;11.21;101324.66;5116320;28;20457;-77
2022/03/23 03:42:04;;;;;;;1.60;1.48;;;;;;;23.40;11.12;101319.44;5117006;28;20027;-76
2022/03/23 03:44:29;;;;;;;1.42;1.33;;;;;;;23.39;11.25;101318.63;5117182;28;20032;-76
2022/03/23 03:46:55;;;;;;;1.58;1.48;;;;;;;23.40;11.07;101320.28;5117191;28;20019;-77
2022/03/23 03:49:20;;;;;;;1.50;1.40;;;;;;;23.40;11.12;101311.25;5116877;28;20023;-77
2022/03/23 03:51:46;;;;;;;1.67;1.50;;;;;;;23.38;11.02;101305.22;5116952;28;20065;-75
2022/03/23 03:54:11;;;;;;;1.65;1.55;;;;;;;23.40;10.99;101313.97;5116710;28;20035;-77
2022/03/23 03:56:37;;;;;;;1.30;1.20;;;;;;;23.39;11.12;101312.34;5116640;28;20027;-76
2022/03/23 03:59:02;;;;;;;1.50;1.40;;;;;;;23.36;10.93;101310.94;5116685;28;20024;-76
2022/03/23 04:01:28;;;;;;;1.70;1.60;;;;;;;23.37;11.07;101303.56;5116860;28;20035;-76
2022/03/23 04:03:53;;;;;;;1.58;1.48;;;;;;;23.38;11.16;101302.50;5116864;28;20465;-77
2022/03/23 04:06:20;;;;;;;1.33;1.23;;;;;;;23.38;11.00;101295.13;5116592;28;20043;-77
2022/03/23 04:08:45;;;;;;;1.75;1.63;;;;;;;23.38;11.16;101294.31;5116820;28;20028;-77
2022/03/23 04:11:11;;;;;;;2.05;1.50;;;;;;;23.37;11.22;101287.19;5117458;28;20024;-74
2022/03/23 04:13:36;;;;;;;1.75;1.65;;;;;;;23.36;11.09;101283.66;5118119;28;20041;-74
2022/03/23 04:16:02;;;;;;;1.42;1.33;;;;;;;23.37;11.17;101287.19;5098853;28;20465;-74
2022/03/23 04:18:28;;;;;;;1.67;1.58;;;;;;;23.34;11.18;101277.63;5107091;28;20016;-74
2022/03/23 04:20:53;;;;;;;1.98;1.70;;;;;;;23.35;11.02;101282.03;5096277;28;20036;-74
2022/03/23 04:23:19;;;;;;;1.48;1.38;;;;;;;23.36;11.06;101280.94;5096245;28;20393;-74
2022/03/23 04:25:44;;;;;;;1.50;1.40;;;;;;;23.37;10.97;101282.59;5096058;28;20384;-74
2022/03/23 04:28:10;;;;;;;1.63;1.35;;;;;;;23.38;10.92;101280.69;5096743;28;20032;-75
2022/03/23 04:30:36;;;;;;;2.70;1.63;;;;;;;23.34;11.09;101280.38;5096352;28;20386;-74
2022/03/23 04:33:01;;;;;;;2.20;1.65;;;;;;;23.37;11.09;101288.06;5095701;28;20024;-75
2022/03/23 04:35:27;;;;;;;1.92;1.83;;;;;;;23.37;11.00;101271.69;5095478;28;20028;-75
2022/03/23 04:37:53;;;;;;;1.83;1.73;;;;;;;23.16;11.10;101258.81;5095577;28;20073;-74
2022/03/23 04:40:18;;;;;;;2.00;1.60;;;;;;;23.33;10.97;101273.25;5095664;28;20028;-75
2022/03/23 04:42:44;;;;;;;2.25;1.70;;;;;;;23.40;10.92;101268.47;5095824;28;20030;-75
2022/03/23 04:45:10;;;;;;;1.60;1.50;;;;;;;23.34;11.53;101264.00;5096543;28;20478;-74
2022/03/23 04:47:36;;;;;;;1.98;1.70;;;;;;;23.45;11.16;101267.69;5096018;28;20021;-75
2022/03/23 04:50:03;;;;;;;1.52;1.40;;;;;;;23.50;11.52;101265.03;5095226;28;20020;-75
2022/03/23 04:52:30;;;;;;;1.70;1.60;;;;;;;23.68;11.08;101265.78;5096358;28;20016;-74
2022/03/23 04:54:56;;;;;;;1.45;1.35;;;;;;;23.55;11.32;101267.00;5095578;28;20021;-74
2022/03/23 04:57:25;;;;;;;1.92;1.50;;;;;;;23.85;11.02;101277.47;5095582;28;20347;-73
2022/03/23 04:59:51;;;;;;;1.70;1.60;;;;;;;24.06;10.86;101278.56;5096235;28;20024;-74
2022/03/23 05:02:16;;;;;;;1.70;1.60;;;;;;;24.21;10.73;101277.88;5096684;28;20034;-74
2022/03/23 05:04:43;;;;;;;2.17;1.60;;;;;;;24.45;10.78;101275.66;5096418;28;20028;-75
2022/03/23 05:07:08;;;;;;;1.48;1.38;;;;;;;24.53;10.47;101277.91;5078706;28;20056;-75
2022/03/23 05:09:34;;;;;;;2.13;1.75;;;;;;;24.60;10.66;101271.47;5096040;28;20024;-74
2022/03/23 05:11:59;;;;;;;1.90;1.80;;;;;;;24.82;10.61;101268.59;5096348;28;20043;-75
2022/03/23 05:14:24;;;;;;;1.80;1.70;;;;;;;24.98;10.48;101273.13;5096333;28;20424;-75
2022/03/23 05:16:50;;;;;;;1.80;1.70;;;;;;;25.01;9.95;101272.59;5096419;28;20020;-75
2022/03/23 05:19:15;;;;;;;1.77;1.67;;;;;;;24.97;10.04;101271.47;5111021;28;20026;-74
2022/03/23 05:21:41;;;;;;;1.73;1.63;;;;;;;25.19;10.31;101263.13;5121688;28;20019;-74
2022/03/23 05:24:06;;;;;;;1.65;1.55;;;;;;;25.31;9.85;101265.69;5124722;28;20076;-75
2022/03/23 05:26:32;;;;;;;1.60;1.50;;;;;;;25.41;9.93;101260.28;5125076;28;20024;-75
2022/03/23 05:28:57;;;;;;;2.30;2.10;;;;;;;25.46;10.23;101267.69;5124693;28;20031;-75
2022/03/23 05:31:23;;;;;;;1.80;1.70;;;;;;;25.43;9.96;101268.22;5127026;28;20019;-75
2022/03/23 05:33:48;;;;;;;1.80;1.67;;;;;;;25.59;10.09;101256.25;5111991;28;20461;-76
2022/03/23 05:36:14;;;;;;;2.00;1.80;;;;;;;25.38;9.93;101257.25;5128319;28;20050;-75
2022/03/23 05:38:39;;;;;;;2.42;1.83;;;;;;;25.48;10.26;101255.38;5128138;28;20138;-74
2022/03/23 05:41:05;;;;;;;2.28;1.70;;;;;;;25.52;10.14;101239.25;5127095;28;20046;-74
2022/03/23 05:43:30;;;;;;;2.40;1.67;;;;;;;25.90;9.90;101247.31;5124240;28;20449;-75
2022/03/23 05:45:55;;;;;;;2.53;1.75;;;;;;;25.89;10.04;101242.91;5129697;28;20470;-75
2022/03/23 05:48:21;;;;;;;9.10;1.90;;;;;;;25.88;10.22;101242.09;5115481;28;20028;-75
2022/03/23 05:50:46;;;;;;;2.80;1.85;;;;;;;26.04;10.15;101238.34;5134628;28;20018;-75
2022/03/23 05:53:12;;;;;;;1.70;1.60;;;;;;;26.10;10.20;101250.13;5133606;28;20024;-76
2022/03/23 05:55:37;;;;;;;2.00;1.80;;;;;;;26.02;10.19;101242.44;5133337;28;20034;-74
2022/03/23 05:58:03;;;;;;;2.67;2.05;;;;;;;26.01;9.82;101247.09;5134037;28;20027;-73
2022/03/23 06:00:29;;;;;;;4.05;2.08;;;;;;;26.04;10.10;101256.69;5134655;28;20016;-76
2022/03/23 06:02:54;;;;;;;2.22;1.88;;;;;;;26.21;10.01;101250.97;5126269;28;20023;-74
2022/03/23 06:05:20;;;;;;;1.88;1.58;;;;;;;26.37;10.03;101247.16;5117260;28;20023;-74
2022/03/23 06:07:46;;;;;;;2.17;1.90;;;;;;;26.41;10.11;101251.00;5117018;28;20508;-75
2022/03/23 06:10:11;;;;;;;2.53;2.00;;;;;;;26.39;10.34;101239.50;5115307;28;20495;-75
2022/03/23 06:12:37;;;;;;;3.33;1.88;;;;;;;26.48;10.30;101238.94;5115956;28;20038;-76
2022/03/23 06:15:05;;;;;;;2.20;1.92;;;;;;;26.31;10.24;101237.28;5096593;28;20088;-75
2022/03/23 06:17:31;;;;;;;2.97;2.00;;;;;;;26.49;10.50;101241.41;5115105;28;20028;-74
2022/03/23 06:19:56;;;;;;;2.40;2.20;;;;;;;26.34;10.62;101244.97;5094771;28;20030;-76
2022/03/23 06:22:22;;;;;;;2.30;2.10;;;;;;;26.43;10.68;101243.31;5094122;28;20024;-75
2022/03/23 06:24:47;;;;;;;9.38;2.85;;;;;;;26.44;10.69;101244.16;5093732;28;20070;-75
2022/03/23 06:27:13;;;;;;;32.97;14.45;;;;;;;26.49;11.00;101246.06;5075751;28;20035;-76
2022/03/23 06:29:38;;;;;;;12.93;5.70;;;;;;;26.53;10.80;101247.19;5094046;28;20024;-73
2022/03/23 06:32:04;;;;;;;4.10;2.92;;;;;;;26.43;10.97;101243.31;5094310;28;20021;-74
2022/03/23 06:34:29;;;;;;;4.97;2.60;;;;;;;26.44;11.18;101244.16;5094451;28;20024;-75
2022/03/23 06:36:55;;;;;;;3.92;2.17;;;;;;;26.38;11.32;101251.53;5094195;28;20112;-75
2022/03/23 06:39:20;;;;;;;2.63;2.30;;;;;;;26.61;11.08;101249.34;5075417;28;20102;-74
2022/03/23 06:41:46;;;;;;;79.05;31.85;;;;;;;26.60;11.40;101244.97;5093233;28;20028;-74
2022/03/23 06:44:11;;;;;;;18.23;8.68;;;;;;;26.50;11.30;101242.22;5093189;28;20032;-72
2022/03/23 06:46:37;;;;;;;64.70;26.40;;;;;;;26.74;11.27;101243.34;5094189;28;20029;-76
2022/03/23 06:49:02;;;;;;;19.80;9.68;;;;;;;26.83;11.04;101251.03;5093643;28;20028;-76
2022/03/23 06:51:28;;;;;;;11.40;6.55;;;;;;;26.84;11.34;101241.69;5093604;28;20024;-77
2022/03/23 06:53:53;;;;;;;9.77;5.30;;;;;;;26.59;11.56;101237.84;5093380;28;20036;-76
2022/03/23 06:56:19;;;;;;;11.25;5.10;;;;;;;26.92;11.23;101233.75;5093397;28;20369;-76
2022/03/23 06:58:44;;;;;;;10.35;4.50;;;;;;;26.86;11.40;101234.03;5093401;28;20051;-75
2022/03/23 07:01:10;;;;;;;14.30;4.10;;;;;;;26.83;11.88;101234.56;5093605;28;20054;-76
2022/03/23 07:03:35;;;;;;;9.45;4.10;;;;;;;26.66;12.34;101230.19;5094556;28;20024;-75
2022/03/23 07:06:01;;;;;;;6.05;3.40;;;;;;;26.82;11.95;101233.75;5093825;28;20020;-75
2022/03/23 07:11:10;;;;;;;;;;;;;;;27.10;11.78;101235.06;5082797;28;20031;-74
2022/03/23 07:13:36;;;;;;;7.80;3.20;;;;;;;26.96;11.95;101229.31;5100240;28;19908;-74
2022/03/23 07:16:01;;;;;;;6.15;3.20;;;;;;;27.02;11.91;101212.84;5105497;28;20306;-76
2022/03/23 07:18:27;;;;;;;6.97;3.70;;;;;;;27.12;11.89;101219.13;5106751;28;20028;-77
2022/03/23 07:20:53;;;;;;;5.82;3.30;;;;;;;27.16;11.66;101224.88;5102174;28;20048;-77
2022/03/23 07:23:18;;;;;;;7.38;3.33;;;;;;;26.91;12.05;101232.09;5099279;28;20042;-77
2022/03/23 07:25:43;;;;;;;5.50;3.28;;;;;;;27.07;11.77;101232.88;5107014;28;20028;-78
2022/03/23 07:28:09;;;;;;;6.47;2.95;;;;;;;27.06;11.69;101228.50;5108296;28;20054;-79
2022/03/23 07:30:36;;;;;;;5.57;2.53;;;;;;;27.05;11.73;101228.78;5105537;28;20036;-76
2022/03/23 07:33:02;;;;;;;9.80;5.07;;;;;;;26.90;12.09;101230.41;5114136;28;20062;-76
2022/03/23 07:35:27;;;;;;;8.38;4.32;;;;;;;27.02;12.00;101201.88;5105675;28;20442;-75
2022/03/23 07:37:52;;;;;;;6.97;3.33;;;;;;;27.04;11.99;101208.72;5105001;28;20028;-75
2022/03/23 07:40:18;;;;;;;4.60;3.00;;;;;;;27.18;11.85;101228.16;5105752;28;20486;-75
2022/03/23 07:42:43;;;;;;;3.90;2.65;;;;;;;27.08;11.92;101225.44;5103502;28;20024;-75
2022/03/23 07:45:09;;;;;;;4.30;2.92;;;;;;;27.21;11.79;101232.28;5113750;28;20031;-73
2022/03/23 07:47:35;;;;;;;3.78;2.58;;;;;;;27.29;11.74;101245.47;5103607;28;20020;-77
2022/03/23 07:50:00;;;;;;;3.38;2.40;;;;;;;27.37;11.73;101233.06;5102637;28;20027;-77
2022/03/23 07:52:26;;;;;;;3.47;2.60;;;;;;;27.27;11.66;101212.78;5111024;28;20034;-75
2022/03/23 07:54:52;;;;;;;7.18;3.88;;;;;;;27.38;11.76;101223.75;5110956;28;20034;-76
2022/03/23 07:57:17;;;;;;;6.97;4.85;;;;;;;27.38;11.67;101216.34;5108418;28;20430;-77
2022/03/23 07:59:43;;;;;;;6.35;3.38;;;;;;;27.47;11.63;101228.34;5111082;28;20133;-75
2022/03/23 08:02:09;;;;;;;6.05;3.60;;;;;;;27.45;11.64;101224.28;5108295;28;20462;-76
2022/03/23 08:04:34;;;;;;;5.43;3.10;;;;;;;27.30;11.79;101212.25;5108911;28;20032;-77
2022/03/23 08:07:01;;;;;;;4.30;2.80;;;;;;;27.15;12.04;101213.09;5100493;28;20044;-77
2022/03/23 08:09:26;;;;;;;4.25;2.88;;;;;;;27.31;11.82;101224.06;5101538;28;20043;-77
2022/03/23 08:11:52;;;;;;;3.53;3.03;;;;;;;27.31;11.86;101224.88;5096895;28;20027;-75
2022/03/23 08:14:17;;;;;;;5.25;3.05;;;;;;;27.39;11.70;101226.22;5101690;28;20016;-77
2022/03/23 08:16:43;;;;;;;5.15;2.60;;;;;;;27.41;11.92;101207.53;5103751;28;20031;-76
2022/03/23 08:19:08;;;;;;;4.63;2.67;;;;;;;27.41;11.93;101228.69;5095364;28;20026;-75
2022/03/23 08:21:34;;;;;;;2.97;2.53;;;;;;;27.52;11.74;101224.78;5123380;28;20028;-77
2022/03/23 08:24:00;;;;;;;4.80;2.70;;;;;;;27.49;11.74;101220.69;5124614;28;20030;-76
2022/03/23 08:26:25;;;;;;;3.63;2.78;;;;;;;27.47;11.69;101209.16;5121120;28;20028;-77
2022/03/23 08:28:51;;;;;;;3.38;2.80;;;;;;;27.61;11.59;101216.78;5124283;28;20027;-75
2022/03/23 08:31:17;;;;;;;3.10;2.53;;;;;;;27.56;11.77;101214.88;5120306;28;20028;-76
2022/03/23 08:33:42;;;;;;;4.25;2.70;;;;;;;27.46;11.79;101213.00;5116633;28;20108;-76
2022/03/23 08:36:08;;;;;;;5.97;3.08;;;;;;;27.48;11.84;101216.28;5117356;28;20028;-76
2022/03/23 08:38:34;;;;;;;3.42;2.30;;;;;;;27.43;11.98;101219.06;5115506;28;20509;-76
2022/03/23 08:40:59;;;;;;;3.35;2.75;;;;;;;27.44;12.03;101215.22;5117181;28;20028;-77
2022/03/23 08:43:25;;;;;;;5.00;2.80;;;;;;;27.61;11.68;101211.28;5120783;28;20016;-75
2022/03/23 08:45:51;;;;;;;3.38;2.33;;;;;;;27.64;11.78;101208.78;5119908;28;20023;-77
2022/03/23 08:48:18;;;;;;;2.75;2.38;;;;;;;27.45;11.85;101207.81;5116959;28;20024;-76
2022/03/23 08:50:45;;;;;;;2.53;2.30;;;;;;;27.45;11.91;101202.31;5103743;28;20031;-76
2022/03/23 08:53:10;;;;;;;2.97;2.40;;;;;;;27.71;11.70;101200.25;5124917;28;20051;-75
2022/03/23 08:55:36;;;;;;;2.17;1.98;;;;;;;27.45;11.99;101200.38;5118984;28;20016;-77
2022/03/23 08:58:02;;;;;;;2.47;1.88;;;;;;;27.65;11.80;101195.91;5121586;28;20035;-77
2022/03/23 09:00:27;;;;;;;2.17;1.98;;;;;;;27.71;11.64;101201.06;5126013;28;20031;-77
2022/03/23 09:02:53;;;;;;;2.38;2.13;;;;;;;27.80;11.64;101195.78;5098929;28;20028;-76
2022/03/23 09:05:19;;;;;;;2.35;2.15;;;;;;;27.83;11.56;101199.91;5116749;28;20377;-76
2022/03/23 09:07:45;;;;;;;2.55;1.88;;;;;;;27.81;11.76;101200.19;5115582;28;20438;-78
2022/03/23 09:10:11;;;;;;;2.20;2.00;;;;;;;27.93;11.55;101201.81;5116263;28;20059;-77
2022/03/23 09:12:37;;;;;;;2.45;2.25;;;;;;;27.94;11.51;101201.53;5115854;28;20027;-75
2022/03/23 09:15:04;;;;;;;2.05;1.88;;;;;;;27.89;11.63;101199.59;5098142;28;20020;-75
2022/03/23 09:17:29;;;;;;;2.03;1.80;;;;;;;27.94;11.44;101196.03;5115878;28;20034;-77
2022/03/23 09:19:55;;;;;;;2.55;2.10;;;;;;;27.93;11.55;101201.81;5100796;28;20028;-77
2022/03/23 09:22:21;;;;;;;2.22;1.80;;;;;;;28.00;11.56;101208.63;5095951;28;20052;-76
2022/03/23 09:24:47;;;;;;;2.20;2.00;;;;;;;27.98;11.50;101199.03;5096034;28;20462;-76
2022/03/23 09:27:12;;;;;;;3.45;1.98;;;;;;;28.02;11.65;101194.59;5098943;28;20068;-77
2022/03/23 09:29:39;;;;;;;2.05;1.95;;;;;;;28.06;11.45;101196.50;5098382;28;20337;-74
2022/03/23 09:32:09;;;;;;;2.58;1.77;;;;;;;28.01;11.64;101199.28;5097321;28;20028;-73
2022/03/23 09:34:35;;;;;;;2.00;1.70;;;;;;;27.98;11.56;101193.53;5097403;28;20024;-75
2022/03/23 09:39:45;;;;;;;;;;;;;;;28.33;11.41;101189.69;5097219;28;20405;-74
2022/03/23 09:42:10;;;;;;;1.80;1.70;;;;;;;28.21;11.64;101197.47;5096929;28;19923;-76
2022/03/23 09:44:36;;;;;;;2.28;2.08;;;;;;;28.11;11.71;101184.63;5078516;28;20272;-75
2022/03/23 09:47:01;;;;;;;1.80;1.70;;;;;;;28.15;11.50;101188.47;5079256;28;20024;-75
2022/03/23 09:49:26;;;;;;;2.03;1.83;;;;;;;28.18;11.39;101176.91;5097062;28;20024;-75
2022/03/23 09:51:53;;;;;;;2.45;1.95;;;;;;;27.88;11.68;101177.91;5096024;28;20027;-76
2022/03/23 09:54:21;;;;;;;1.95;1.80;;;;;;;28.01;11.52;101176.47;5096388;28;20024;-75
2022/03/23 09:56:46;;;;;;;1.80;1.70;;;;;;;28.00;11.50;101161.91;5100458;28;20130;-77
2022/03/23 09:59:12;;;;;;;1.80;1.70;;;;;;;27.89;11.72;101172.13;5097604;28;20376;-75
2022/03/23 10:01:46;;;;;;;1.58;1.45;;;;;;;28.07;11.74;101164.34;5100230;28;20028;-76
2022/03/23 10:04:12;;;;;;;1.70;1.60;;;;;;;28.13;11.63;101167.84;5099550;28;20027;-74
2022/03/23 10:07:05;;;;;;;1.85;1.70;;;;;;;28.21;11.47;101162.56;5097707;28;20478;-74
2022/03/23 10:10:08;;;;;;;1.70;1.60;;;;;;;28.32;11.52;101168.81;5095737;28;20076;-75
2022/03/23 10:12:51;;;;;;;2.13;1.92;;;;;;;28.25;11.38;101155.41;5096939;28;20480;-77
2022/03/23 10:15:53;;;;;;;2.23;1.70;;;;;;;28.25;11.52;101160.06;5096292;28;20111;-75
2022/03/23 10:18:57;;;;;;;2.85;2.50;;;;;;;28.26;11.48;101157.03;5098510;28;20032;-80
2022/03/23 10:21:40;;;;;;;3.93;2.80;;;;;;;28.16;11.60;101154.34;5017530;28;20057;-81
2022/03/23 10:24:06;;;;;;;7.15;3.95;;;;;;;27.74;11.87;101161.25;5019863;28;20280;-81
2022/03/23 10:26:32;;;;;;;8.57;3.88;;;;;;;27.86;12.00;101153.47;5022415;28;20053;-80
2022/03/23 10:28:58;;;;;;;6.90;3.55;;;;;;;27.85;12.17;101157.31;5015813;28;20408;-79
2022/03/23 10:31:25;;;;;;;5.30;3.35;;;;;;;27.87;12.05;101149.63;5013065;28;20040;-78
2022/03/23 10:34:00;;;;;;;4.75;3.20;;;;;;;27.97;11.94;101150.69;5012396;28;20105;-80
2022/03/23 10:36:28;;;;;;;3.13;2.50;;;;;;;27.98;11.87;101152.31;5015999;28;20038;-81
2022/03/23 10:39:00;;;;;;;5.30;2.80;;;;;;;27.97;11.73;101142.44;5014950;28;20034;-80
2022/03/23 10:41:26;;;;;;;3.97;2.67;;;;;;;28.07;11.96;101147.84;5019859;28;20041;-78
2022/03/23 10:43:51;;;;;;;3.78;2.65;;;;;;;28.04;11.73;101148.41;5020943;28;20057;-79
2022/03/23 10:46:17;;;;;;;3.42;2.50;;;;;;;28.03;11.73;101152.28;5026774;28;20357;-79
2022/03/23 10:48:59;;;;;;;5.70;2.58;;;;;;;27.97;11.91;101145.19;5027090;28;20042;-78
2022/03/23 10:51:34;;;;;;;3.72;2.75;;;;;;;28.05;11.78;101141.84;5027906;28;20096;-80
2022/03/23 10:54:21;;;;;;;2.58;2.22;;;;;;;27.81;12.08;101145.25;5005397;28;20037;-82
2022/03/23 10:56:46;;;;;;;4.97;2.58;;;;;;;27.97;11.90;101136.94;5036097;28;20115;-79
2022/03/23 10:59:26;;;;;;;3.47;2.42;;;;;;;27.93;11.87;101144.13;5105345;28;20040;-80
2022/03/23 11:01:57;;;;;;;3.75;2.28;;;;;;;27.87;11.88;101135.88;5107049;28;20031;-79
2022/03/23 11:04:29;;;;;;;4.10;2.45;;;;;;;27.77;12.07;101144.19;5110815;28;20084;-80
2022/03/23 11:06:58;;;;;;;2.60;2.40;;;;;;;27.89;11.93;101146.59;5094166;28;20039;-78
2022/03/23 11:18:06;;;;;;;3.15;2.10;;;;;;;27.80;11.49;101138.13;5099983;28;20035;-77
2022/03/23 11:20:54;;;;;;;3.45;2.40;;;;;;;27.79;11.62;101139.25;5119185;28;20035;-76
2022/03/23 11:23:33;;;;;;;2.30;2.10;;;;;;;27.59;11.58;101136.63;5106979;28;20032;-75
2022/03/23 11:26:20;;;;;;;2.30;2.10;;;;;;;27.57;11.70;101149.81;5130842;28;20378;-76
2022/03/23 11:28:48;;;;;;;2.33;2.13;;;;;;;27.53;11.69;101144.88;5110609;28;20050;-78
2022/03/23 11:31:16;;;;;;;2.88;2.20;;;;;;;27.54;11.65;101151.19;5133826;28;20047;-78
2022/03/23 11:33:42;;;;;;;2.20;2.00;;;;;;;27.48;11.88;101149.59;5106821;28;20043;-78
2022/03/23 11:36:10;;;;;;;2.35;2.15;;;;;;;27.40;12.04;101151.00;5120114;28;20031;-77
2022/03/23 11:38:37;;;;;;;3.83;2.13;;;;;;;27.36;11.87;101155.41;5125476;28;20023;-77
2022/03/23 11:41:03;;;;;;;2.55;2.20;;;;;;;27.33;11.87;101151.31;5127557;28;20050;-78
2022/03/23 11:43:36;;;;;;;2.65;1.95;;;;;;;27.14;12.04;101151.06;5105619;28;20020;-74
2022/03/23 11:46:02;;;;;;;2.53;2.33;;;;;;;27.00;12.02;101154.72;5105429;28;20035;-78
2022/03/23 11:48:44;;;;;;;2.22;2.00;;;;;;;27.14;11.84;101144.78;5104547;28;20024;-76
2022/03/23 11:51:13;;;;;;;4.03;2.10;;;;;;;27.02;12.32;101150.59;5122641;28;20031;-76